Time;durP1;ratioP1;P1;durP2;ratioP2;P2;SDS_P1;SDS_P2;PMS_P1;PMS_P2;Temp;Humidity;BMP_temperature;BMP_pressure;BME280_temperature;BME280_humidity;BME280_pressure;Samples;Min_cycle;Max_cycle;Signal;HPM_P1;HPM_P2
2023/04/17 00:01:00;;;;;;;28.33;20.87;;;;;;;-150.27;100.00;61272.81;5054742;29;20474;-77
2023/04/17 00:03:32;;;;;;;27.10;22.20;;;;;;;-150.27;100.00;61272.81;5053994;29;20029;-76
2023/04/17 00:06:04;;;;;;;25.60;20.50;;;;;;;-150.27;100.00;61272.81;5053786;29;20033;-76
2023/04/17 00:08:35;;;;;;;34.73;23.60;;;;;;;-150.27;100.00;61272.81;5038254;29;20060;-77
2023/04/17 00:11:06;;;;;;;27.73;21.70;;;;;;;-150.27;100.00;61272.81;5053516;29;20033;-77
2023/04/17 00:13:38;;;;;;;30.30;22.00;;;;;;;-150.27;100.00;61272.81;5054463;29;20053;-77
2023/04/17 00:16:11;;;;;;;27.37;21.47;;;;;;;-150.27;100.00;61272.81;5054885;29;20387;-77
2023/04/17 00:18:42;;;;;;;28.13;21.43;;;;;;;-150.27;100.00;61272.81;5054769;29;20087;-75
2023/04/17 00:21:14;;;;;;;31.27;22.30;;;;;;;-150.27;100.00;61272.81;5037468;29;20390;-76
2023/04/17 00:23:45;;;;;;;28.43;20.40;;;;;;;-150.27;100.00;61272.81;5054482;29;20029;-75
2023/04/17 00:26:18;;;;;;;28.03;22.43;;;;;;;-150.27;100.00;61272.81;5036816;29;20076;-76
2023/04/17 00:28:50;;;;;;;28.93;22.50;;;;;;;-150.27;100.00;61272.81;5054693;29;20103;-77
2023/04/17 00:31:21;;;;;;;28.60;22.37;;;;;;;-150.27;100.00;61272.81;5054222;29;20037;-76
2023/04/17 00:33:53;;;;;;;28.13;21.17;;;;;;;-150.27;100.00;61272.81;5054571;29;20029;-77
2023/04/17 00:36:24;;;;;;;30.53;23.50;;;;;;;-150.27;100.00;61272.81;5054028;29;20034;-76
2023/04/17 00:38:56;;;;;;;24.50;20.03;;;;;;;-150.27;100.00;61272.81;5054222;29;20108;-76
2023/04/17 00:41:27;;;;;;;30.00;22.57;;;;;;;-150.27;100.00;61272.81;5053451;29;20038;-77
2023/04/17 00:43:59;;;;;;;28.47;21.30;;;;;;;-150.27;100.00;61272.81;5054276;29;20057;-77
2023/04/17 00:46:31;;;;;;;31.27;22.77;;;;;;;-150.27;100.00;61272.81;5054528;29;20045;-76
2023/04/17 00:49:03;;;;;;;28.87;21.33;;;;;;;-150.27;100.00;61272.81;5037448;29;20044;-76
2023/04/17 00:51:34;;;;;;;27.83;22.67;;;;;;;-150.27;100.00;61272.81;5037355;29;20029;-76
2023/04/17 00:54:07;;;;;;;26.37;21.00;;;;;;;-150.27;100.00;61272.81;5054321;29;20078;-76
2023/04/17 00:56:38;;;;;;;30.43;22.37;;;;;;;-150.27;100.00;61272.81;5050788;29;20034;-76
2023/04/17 00:59:16;;;;;;;31.37;20.60;;;;;;;-150.27;100.00;61272.81;5051852;29;20044;-76
2023/04/17 01:01:47;;;;;;;31.00;23.23;;;;;;;-150.27;100.00;61272.81;5054236;29;20488;-76
2023/04/17 01:04:18;;;;;;;24.63;20.70;;;;;;;-150.27;100.00;61272.81;5053958;29;20062;-76
2023/04/17 01:06:52;;;;;;;27.93;21.50;;;;;;;-150.27;100.00;61272.81;5054410;29;20030;-76
2023/04/17 01:09:23;;;;;;;27.37;21.47;;;;;;;-150.27;100.00;61272.81;5043461;29;20040;-76
2023/04/17 01:12:14;;;;;;;30.83;22.03;;;;;;;-150.27;100.00;61272.81;5054221;29;20033;-75
2023/04/17 01:14:48;;;;;;;25.80;20.37;;;;;;;-150.27;100.00;61272.81;5037070;29;20068;-76
2023/04/17 01:17:20;;;;;;;27.15;20.98;;;;;;;-150.27;100.00;61272.81;5054045;29;20436;-77
2023/04/17 01:19:52;;;;;;;30.13;21.93;;;;;;;-150.27;100.00;61272.81;5037223;29;20104;-77
2023/04/17 01:22:24;;;;;;;28.73;21.07;;;;;;;-150.27;100.00;61272.81;5036850;29;20086;-77
2023/04/17 01:24:55;;;;;;;28.87;22.33;;;;;;;-150.27;100.00;61272.81;5053201;29;20161;-77
2023/04/17 01:27:27;;;;;;;30.33;22.80;;;;;;;-150.27;100.00;61272.81;5053659;29;20033;-77
2023/04/17 01:29:58;;;;;;;32.10;23.23;;;;;;;-150.27;100.00;61272.81;5054185;29;20676;-76
2023/04/17 01:32:29;;;;;;;25.30;21.03;;;;;;;-150.27;100.00;61272.81;5053478;29;20482;-76
2023/04/17 01:35:01;;;;;;;29.20;21.70;;;;;;;-150.27;100.00;61272.81;5053938;29;20159;-76
2023/04/17 01:37:33;;;;;;;28.60;21.57;;;;;;;-150.27;100.00;61272.81;5053813;29;20045;-77
2023/04/17 01:40:05;;;;;;;26.83;21.30;;;;;;;-150.27;100.00;61272.81;5055601;29;20032;-77
2023/04/17 01:42:37;;;;;;;27.57;21.17;;;;;;;-150.27;100.00;61272.81;5040880;29;20085;-77
2023/04/17 01:45:09;;;;;;;26.73;20.90;;;;;;;-150.27;100.00;61272.81;5057388;29;20025;-77
2023/04/17 01:47:40;;;;;;;26.13;20.57;;;;;;;-150.27;100.00;61272.81;5057143;29;20040;-75
2023/04/17 01:50:12;;;;;;;22.03;19.53;;;;;;;-150.27;100.00;61272.81;5057530;29;20120;-75
2023/04/17 01:52:44;;;;;;;27.47;21.73;;;;;;;-150.27;100.00;61272.81;5057410;29;20467;-75
2023/04/17 01:55:15;;;;;;;26.03;20.60;;;;;;;-150.27;100.00;61272.81;5057288;29;20465;-75
2023/04/17 01:57:48;;;;;;;26.30;20.57;;;;;;;-150.27;100.00;61272.81;5057208;29;20681;-75
2023/04/17 02:00:20;;;;;;;25.93;19.77;;;;;;;-150.27;100.00;61272.81;5056141;29;20033;-75
2023/04/17 02:02:51;;;;;;;27.60;21.07;;;;;;;-150.27;100.00;61272.81;5054570;29;20049;-76
2023/04/17 02:05:22;;;;;;;31.23;20.60;;;;;;;-150.27;100.00;61272.81;5054607;29;20471;-77
2023/04/17 02:07:54;;;;;;;27.13;19.63;;;;;;;-150.27;100.00;61272.81;5054707;29;20067;-76
2023/04/17 02:10:25;;;;;;;27.20;22.00;;;;;;;-150.27;100.00;61272.81;5047163;29;20511;-76
2023/04/17 02:12:56;;;;;;;29.27;21.13;;;;;;;-150.27;100.00;61272.81;5043914;29;20476;-76
2023/04/17 02:15:28;;;;;;;28.60;21.30;;;;;;;-150.27;100.00;61272.81;5051369;29;20151;-78
2023/04/17 02:18:00;;;;;;;29.53;20.97;;;;;;;-150.27;100.00;61272.81;5054842;29;20109;-76
2023/04/17 02:20:33;;;;;;;30.23;19.40;;;;;;;-150.27;100.00;61272.81;5047301;29;20061;-76
2023/04/17 02:23:05;;;;;;;24.20;20.20;;;;;;;-150.27;100.00;61272.81;5042151;29;20038;-76
2023/04/17 02:25:37;;;;;;;25.00;19.97;;;;;;;-150.27;100.00;61272.81;5043783;29;20108;-76
2023/04/17 02:28:08;;;;;;;25.30;19.07;;;;;;;-150.27;100.00;61272.81;5056374;29;20112;-76
2023/04/17 02:30:40;;;;;;;23.77;18.93;;;;;;;-150.27;100.00;61272.81;5055837;29;20037;-76
2023/04/17 02:33:11;;;;;;;23.37;20.10;;;;;;;-150.27;100.00;61272.81;5056283;29;20089;-76
2023/04/17 02:35:42;;;;;;;25.13;20.57;;;;;;;-150.27;100.00;61272.81;5056699;29;20033;-76
2023/04/17 02:38:14;;;;;;;26.80;19.20;;;;;;;-150.27;100.00;61272.81;5054340;29;20064;-76
2023/04/17 02:40:45;;;;;;;22.67;19.17;;;;;;;-150.27;100.00;61272.81;5054879;29;20038;-76
2023/04/17 02:43:17;;;;;;;23.37;19.90;;;;;;;-150.27;100.00;61272.81;5054929;29;20145;-76
2023/04/17 02:45:48;;;;;;;25.60;20.43;;;;;;;-150.27;100.00;61272.81;5054837;29;20034;-77
2023/04/17 02:48:19;;;;;;;25.87;20.47;;;;;;;-150.27;100.00;61272.81;5039038;29;20557;-75
2023/04/17 02:50:51;;;;;;;28.07;21.37;;;;;;;-150.27;100.00;61272.81;5053404;29;20351;-75
2023/04/17 02:53:22;;;;;;;25.33;21.83;;;;;;;-150.27;100.00;61272.81;5055716;29;20754;-75
2023/04/17 02:55:53;;;;;;;30.80;22.23;;;;;;;-150.27;100.00;61272.81;5054886;29;20049;-76
2023/04/17 02:58:25;;;;;;;28.00;23.67;;;;;;;-150.27;100.00;61272.81;5056116;29;20033;-75
2023/04/17 03:01:02;;;;;;;29.67;22.47;;;;;;;-150.27;100.00;61272.81;5034854;29;20030;-76
2023/04/17 03:03:34;;;;;;;30.30;22.53;;;;;;;-150.27;100.00;61272.81;5046674;29;20068;-76
2023/04/17 03:06:06;;;;;;;28.63;23.80;;;;;;;-150.27;100.00;61272.81;5053676;29;20512;-76
2023/04/17 03:08:37;;;;;;;27.77;23.07;;;;;;;-150.27;100.00;61272.81;5048732;29;20729;-77
2023/04/17 03:11:09;;;;;;;27.83;23.47;;;;;;;-150.27;100.00;61272.81;5045755;29;20057;-77
2023/04/17 03:13:40;;;;;;;33.80;23.47;;;;;;;-150.27;100.00;61272.81;5036168;29;20102;-78
2023/04/17 03:16:11;;;;;;;30.80;23.50;;;;;;;-150.27;100.00;61272.81;5044423;29;20029;-78
2023/04/17 03:18:43;;;;;;;31.30;24.30;;;;;;;-150.27;100.00;61272.81;5055766;29;20108;-78
2023/04/17 03:21:14;;;;;;;32.23;24.17;;;;;;;-150.27;100.00;61272.81;5055625;29;20049;-77
2023/04/17 03:23:45;;;;;;;28.70;22.77;;;;;;;-150.27;100.00;61272.81;5054372;29;20109;-77
2023/04/17 03:26:17;;;;;;;29.47;22.00;;;;;;;-150.27;100.00;61272.81;5054900;29;20033;-76
2023/04/17 03:28:48;;;;;;;33.27;25.57;;;;;;;-150.27;100.00;61272.81;5040798;29;20094;-76
2023/04/17 03:31:22;;;;;;;31.40;25.83;;;;;;;-150.27;100.00;61272.81;5035815;29;20041;-76
2023/04/17 03:33:53;;;;;;;31.17;24.80;;;;;;;-150.27;100.00;61272.81;5036580;29;20402;-76
2023/04/17 03:36:25;;;;;;;31.47;25.37;;;;;;;-150.27;100.00;61272.81;5036119;29;20033;-76
2023/04/17 03:38:57;;;;;;;33.87;23.53;;;;;;;-150.27;100.00;61272.81;5035744;29;20037;-77
2023/04/17 03:41:28;;;;;;;33.20;24.70;;;;;;;-150.27;100.00;61272.81;5036174;29;20042;-77
2023/04/17 03:43:59;;;;;;;33.50;24.93;;;;;;;-150.27;100.00;61272.81;5054849;29;20026;-76
2023/04/17 03:46:31;;;;;;;29.27;22.93;;;;;;;-150.27;100.00;61272.81;5054878;29;20630;-76
2023/04/17 03:49:02;;;;;;;34.10;24.90;;;;;;;-150.27;100.00;61272.81;5054831;29;20132;-75
2023/04/17 03:51:33;;;;;;;34.87;26.37;;;;;;;-150.27;100.00;61272.81;5055354;29;20038;-76
2023/04/17 03:54:05;;;;;;;29.27;24.03;;;;;;;-150.27;100.00;61272.81;5049334;29;20225;-76
2023/04/17 03:56:36;;;;;;;29.47;23.53;;;;;;;-150.27;100.00;61272.81;5038066;29;20349;-76
2023/04/17 03:59:07;;;;;;;33.90;26.27;;;;;;;-150.27;100.00;61272.81;5055131;29;20038;-77
2023/04/17 04:01:39;;;;;;;30.77;23.93;;;;;;;-150.27;100.00;61272.81;5036848;29;20041;-76
2023/04/17 04:04:10;;;;;;;33.47;24.47;;;;;;;-150.27;100.00;61272.81;5055295;29;20370;-76
2023/04/17 04:06:42;;;;;;;32.33;24.80;;;;;;;-150.27;100.00;61272.81;5054584;29;20037;-76
2023/04/17 04:09:13;;;;;;;28.60;24.33;;;;;;;-150.27;100.00;61272.81;5053885;29;20113;-77
2023/04/17 04:11:45;;;;;;;31.53;24.53;;;;;;;-150.27;100.00;61272.81;5054949;29;20033;-75
2023/04/17 04:14:16;;;;;;;33.70;26.50;;;;;;;-150.27;100.00;61272.81;5037797;29;20064;-76
2023/04/17 04:16:48;;;;;;;32.20;24.90;;;;;;;-150.27;100.00;61272.81;5051252;29;20033;-76
2023/04/17 04:19:19;;;;;;;33.70;25.43;;;;;;;-150.27;100.00;61272.81;5054139;29;20372;-76
2023/04/17 04:21:52;;;;;;;34.13;24.37;;;;;;;-150.27;100.00;61272.81;5046025;29;20033;-76
2023/04/17 04:24:24;;;;;;;33.13;24.53;;;;;;;-150.27;100.00;61272.81;5034659;29;20693;-77
2023/04/17 04:27:03;;;;;;;36.20;26.50;;;;;;;-150.27;100.00;61272.81;5035612;29;20030;-77
2023/04/17 04:29:36;;;;;;;30.93;24.97;;;;;;;-150.27;100.00;61272.81;5034858;29;20034;-77
2023/04/17 04:32:08;;;;;;;35.40;26.53;;;;;;;-150.27;100.00;61272.81;5051128;29;20045;-77
2023/04/17 04:34:40;;;;;;;34.90;25.27;;;;;;;-150.27;100.00;61272.81;5028753;29;20387;-77
2023/04/17 04:37:14;;;;;;;36.73;26.97;;;;;;;-150.27;100.00;61272.81;5035181;29;20037;-77
2023/04/17 04:39:52;;;;;;;32.50;25.30;;;;;;;-150.27;100.00;61272.81;5045651;29;20081;-77
2023/04/17 04:42:24;;;;;;;35.73;26.30;;;;;;;-150.27;100.00;61272.81;5034854;29;20034;-76
2023/04/17 04:44:55;;;;;;;33.60;24.47;;;;;;;-150.27;100.00;61272.81;5044046;29;20602;-76
2023/04/17 04:47:26;;;;;;;33.13;25.67;;;;;;;-150.27;100.00;61272.81;5037224;29;20021;-76
2023/04/17 04:49:58;;;;;;;34.83;26.20;;;;;;;-150.27;100.00;61272.81;5054587;29;20040;-76
2023/04/17 04:52:29;;;;;;;35.50;26.70;;;;;;;-150.27;100.00;61272.81;5054345;29;20040;-76
2023/04/17 04:55:00;;;;;;;32.37;25.70;;;;;;;-150.27;100.00;61272.81;5053417;29;20102;-77
2023/04/17 04:57:32;;;;;;;30.63;25.00;;;;;;;-150.27;100.00;61272.81;5042169;29;20032;-77
2023/04/17 05:00:08;;;;;;;33.00;25.63;;;;;;;-150.27;100.00;61272.81;5035026;29;20038;-77
2023/04/17 05:02:40;;;;;;;33.57;26.43;;;;;;;-150.27;100.00;61272.81;5034150;29;20466;-77
2023/04/17 05:05:11;;;;;;;35.83;25.63;;;;;;;-150.27;100.00;61272.81;5034078;29;20065;-77
2023/04/17 05:07:42;;;;;;;35.70;25.37;;;;;;;-150.27;100.00;61272.81;5034883;29;20040;-77
2023/04/17 05:10:14;;;;;;;33.93;25.47;;;;;;;-150.27;100.00;61272.81;5034036;29;20034;-77
2023/04/17 05:12:45;;;;;;;34.53;26.93;;;;;;;-150.27;100.00;61272.81;5035042;29;20399;-78
2023/04/17 05:15:17;;;;;;;33.33;25.40;;;;;;;-150.27;100.00;61272.81;5038439;29;20042;-77
2023/04/17 05:17:48;;;;;;;31.47;25.53;;;;;;;-150.27;100.00;61272.81;5039183;29;20030;-77
2023/04/17 05:20:20;;;;;;;36.17;27.50;;;;;;;-150.27;100.00;61272.81;5038496;29;20042;-76
2023/04/17 05:22:51;;;;;;;34.27;26.73;;;;;;;-150.27;100.00;61272.81;5039228;29;20036;-77
2023/04/17 05:25:23;;;;;;;37.00;27.33;;;;;;;-150.27;100.00;61272.81;5037761;29;20048;-77
2023/04/17 05:27:54;;;;;;;34.27;26.93;;;;;;;-150.27;100.00;61272.81;5038785;29;20061;-76
2023/04/17 05:30:25;;;;;;;37.83;27.47;;;;;;;-150.27;100.00;61272.81;5038510;29;20065;-76
2023/04/17 05:32:57;;;;;;;36.77;28.13;;;;;;;-150.27;100.00;61272.81;5042018;29;20069;-76
2023/04/17 05:35:29;;;;;;;35.13;27.30;;;;;;;-150.27;100.00;61272.81;5057846;29;20030;-77
2023/04/17 05:38:00;;;;;;;38.63;30.50;;;;;;;-150.27;100.00;61272.81;5057952;29;20101;-76
2023/04/17 05:40:32;;;;;;;36.63;27.13;;;;;;;-150.27;100.00;61272.81;5052472;29;20029;-76
2023/04/17 05:43:11;;;;;;;36.33;29.00;;;;;;;-150.27;100.00;61272.81;5048184;29;20022;-76
2023/04/17 05:45:43;;;;;;;33.40;27.23;;;;;;;-150.27;100.00;61272.81;5043020;29;20021;-76
2023/04/17 05:48:15;;;;;;;38.07;28.33;;;;;;;-150.27;100.00;61272.81;5056718;29;20120;-77
2023/04/17 05:50:46;;;;;;;37.10;27.60;;;;;;;-150.27;100.00;61272.81;5057261;29;20030;-77
2023/04/17 05:53:17;;;;;;;31.63;25.83;;;;;;;-150.27;100.00;61272.81;5056859;29;20061;-76
2023/04/17 05:55:49;;;;;;;33.23;26.83;;;;;;;-150.27;100.00;61272.81;5040340;29;20034;-76
2023/04/17 05:58:20;;;;;;;37.10;29.13;;;;;;;-150.27;100.00;61272.81;5056981;29;20042;-77
2023/04/17 06:00:52;;;;;;;36.57;29.07;;;;;;;-150.27;100.00;61272.81;5057295;29;20056;-77
2023/04/17 06:06:51;;;;;;;34.47;26.97;;;;;;;-150.27;100.00;61272.81;5055100;29;20120;-77
2023/04/17 06:09:22;;;;;;;38.47;29.27;;;;;;;-150.27;100.00;61272.81;5055867;29;20116;-77
2023/04/17 06:11:54;;;;;;;36.17;28.50;;;;;;;-150.27;100.00;61272.81;5057018;29;20040;-77
2023/04/17 06:14:26;;;;;;;36.57;29.97;;;;;;;-150.27;100.00;61272.81;5056196;29;20467;-76
2023/04/17 06:16:57;;;;;;;40.00;29.27;;;;;;;-150.27;100.00;61272.81;5056951;29;20066;-76
2023/04/17 06:19:28;;;;;;;40.47;31.13;;;;;;;-150.27;100.00;61272.81;5056518;29;20097;-76
2023/04/17 06:22:00;;;;;;;45.60;31.30;;;;;;;-150.27;100.00;61272.81;5056891;29;20041;-77
2023/04/17 06:24:31;;;;;;;38.07;30.27;;;;;;;-150.27;100.00;61272.81;5027589;29;20034;-77
2023/04/17 06:27:02;;;;;;;39.97;29.57;;;;;;;-150.27;100.00;61272.81;5055149;29;20043;-77
2023/04/17 06:29:34;;;;;;;34.00;26.87;;;;;;;-150.27;100.00;61272.81;5056755;29;20040;-77
2023/04/17 06:32:05;;;;;;;36.83;29.17;;;;;;;-150.27;100.00;61272.81;5056844;29;20068;-78
2023/04/17 06:34:37;;;;;;;40.17;30.70;;;;;;;-150.27;100.00;61272.81;5056765;29;20393;-77
2023/04/17 06:37:08;;;;;;;39.30;29.60;;;;;;;-150.27;100.00;61272.81;5056482;29;20044;-78
2023/04/17 06:39:39;;;;;;;39.80;30.23;;;;;;;-150.27;100.00;61272.81;5055199;29;20044;-78
2023/04/17 06:42:11;;;;;;;37.20;30.23;;;;;;;-150.27;100.00;61272.81;5050875;29;20026;-78
2023/04/17 06:44:42;;;;;;;45.43;31.60;;;;;;;-150.27;100.00;61272.81;5037566;29;20113;-78
2023/04/17 06:47:14;;;;;;;40.00;29.50;;;;;;;-150.27;100.00;61272.81;5036653;29;20504;-78
2023/04/17 06:49:45;;;;;;;43.07;31.87;;;;;;;-150.27;100.00;61272.81;5043745;29;20501;-77
2023/04/17 06:52:19;;;;;;;37.20;29.37;;;;;;;-150.27;100.00;61272.81;5055788;29;20470;-78
2023/04/17 06:54:52;;;;;;;39.75;30.10;;;;;;;-150.27;100.00;61272.81;5038479;29;20044;-77
2023/04/17 06:57:24;;;;;;;38.15;29.58;;;;;;;-150.27;100.00;61272.81;5056047;29;20033;-77
2023/04/17 06:59:55;;;;;;;35.83;28.90;;;;;;;-150.27;100.00;61272.81;5039563;29;20025;-77
2023/04/17 07:02:27;;;;;;;41.43;31.07;;;;;;;-150.27;100.00;61272.81;5052179;29;20049;-78
2023/04/17 07:04:58;;;;;;;40.47;29.97;;;;;;;-150.27;100.00;61272.81;5036308;29;20034;-77
2023/04/17 07:07:29;;;;;;;44.23;31.80;;;;;;;-150.27;100.00;61272.81;5035929;29;20034;-76
2023/04/17 07:10:05;;;;;;;44.40;31.20;;;;;;;-150.27;100.00;61272.81;5036169;29;20162;-77
2023/04/17 07:12:36;;;;;;;42.53;31.80;;;;;;;-150.27;100.00;61272.81;5036417;29;20037;-76
2023/04/17 07:15:08;;;;;;;41.20;29.33;;;;;;;-150.27;100.00;61272.81;5034510;29;20053;-76
2023/04/17 07:17:39;;;;;;;42.73;33.13;;;;;;;-150.27;100.00;61272.81;5055208;29;20435;-77
2023/04/17 07:20:11;;;;;;;44.27;31.83;;;;;;;-150.27;100.00;61272.81;5055782;29;20035;-77
2023/04/17 07:22:42;;;;;;;43.23;30.77;;;;;;;-150.27;100.00;61272.81;5055982;29;20451;-76
2023/04/17 07:25:14;;;;;;;36.87;29.10;;;;;;;-150.27;100.00;61272.81;5054568;29;20029;-77
2023/04/17 07:27:45;;;;;;;43.23;31.60;;;;;;;-150.27;100.00;61272.81;5055773;29;20447;-76
2023/04/17 07:30:16;;;;;;;38.17;30.20;;;;;;;-150.27;100.00;61272.81;5055162;29;20442;-76
2023/04/17 07:32:48;;;;;;;36.33;29.33;;;;;;;-150.27;100.00;61272.81;5055773;29;20449;-76
2023/04/17 07:35:19;;;;;;;37.67;31.00;;;;;;;-150.27;100.00;61272.81;5054279;29;20124;-76
2023/04/17 07:37:50;;;;;;;38.67;30.57;;;;;;;-150.27;100.00;61272.81;5053974;29;20101;-77
2023/04/17 07:40:22;;;;;;;40.60;30.00;;;;;;;-150.27;100.00;61272.81;5053548;29;20040;-77
2023/04/17 07:42:55;;;;;;;39.50;31.70;;;;;;;-150.27;100.00;61272.81;5055227;29;20033;-77
2023/04/17 07:45:27;;;;;;;39.23;29.80;;;;;;;-150.27;100.00;61272.81;5054866;29;20021;-77
2023/04/17 07:47:58;;;;;;;37.83;30.03;;;;;;;-150.27;100.00;61272.81;5054281;29;20100;-77
2023/04/17 07:50:31;;;;;;;40.23;31.87;;;;;;;-150.27;100.00;61272.81;5054207;29;20124;-77
2023/04/17 07:53:02;;;;;;;41.20;32.17;;;;;;;-150.27;100.00;61272.81;5047921;29;20474;-77
2023/04/17 07:55:34;;;;;;;34.60;27.83;;;;;;;-150.27;100.00;61272.81;5042370;29;20033;-77
2023/04/17 07:58:05;;;;;;;37.77;29.80;;;;;;;-150.27;100.00;61272.81;5046315;29;20041;-76
2023/04/17 08:00:37;;;;;;;37.83;30.33;;;;;;;-150.27;100.00;61272.81;5036332;29;20503;-76
2023/04/17 08:03:09;;;;;;;41.27;30.67;;;;;;;-150.27;100.00;61272.81;5044833;29;20045;-77
2023/04/17 08:05:41;;;;;;;41.50;33.90;;;;;;;-150.27;100.00;61272.81;5034804;29;20537;-76
2023/04/17 08:08:12;;;;;;;39.77;32.20;;;;;;;-150.27;100.00;61272.81;5044308;29;20068;-76
2023/04/17 08:10:43;;;;;;;39.17;32.67;;;;;;;-150.27;100.00;61272.81;5043940;29;20453;-76
2023/04/17 08:13:15;;;;;;;38.53;31.27;;;;;;;-150.27;100.00;61272.81;5042548;29;20034;-77
2023/04/17 08:15:46;;;;;;;37.23;30.70;;;;;;;-150.27;100.00;61272.81;5027297;29;20094;-76
2023/04/17 08:18:18;;;;;;;36.03;29.23;;;;;;;-150.27;100.00;61272.81;5028563;29;20046;-76
2023/04/17 08:20:49;;;;;;;37.33;28.40;;;;;;;-150.27;100.00;61272.81;5033606;29;20044;-76
2023/04/17 08:23:21;;;;;;;35.83;28.70;;;;;;;-150.27;100.00;61272.81;5032325;29;20040;-77
2023/04/17 08:25:52;;;;;;;34.07;27.60;;;;;;;-150.27;100.00;61272.81;5032785;29;20030;-76
2023/04/17 08:28:52;;;;;;;33.67;28.47;;;;;;;-150.27;100.00;61272.81;5032344;29;20437;-76
2023/04/17 08:31:23;;;;;;;36.83;27.93;;;;;;;-150.27;100.00;61272.81;5034507;29;20500;-77
2023/04/17 08:33:56;;;;;;;35.40;28.17;;;;;;;-150.27;100.00;61272.81;5029928;29;20065;-77
2023/04/17 08:36:27;;;;;;;32.53;26.13;;;;;;;-150.27;100.00;61272.81;5015537;29;20035;-77
2023/04/17 08:38:58;;;;;;;37.57;28.07;;;;;;;-150.27;100.00;61272.81;5014660;29;20038;-77
2023/04/17 08:41:38;;;;;;;29.83;26.03;;;;;;;-150.27;100.00;61272.81;5019586;29;20074;-77
2023/04/17 08:44:09;;;;;;;30.37;26.60;;;;;;;-150.27;100.00;61272.81;5034598;29;20030;-77
2023/04/17 08:46:41;;;;;;;32.50;26.87;;;;;;;-150.27;100.00;61272.81;5034362;29;20025;-76
2023/04/17 08:49:13;;;;;;;32.57;26.87;;;;;;;-150.27;100.00;61272.81;5033249;29;20044;-76
2023/04/17 08:51:45;;;;;;;34.47;27.23;;;;;;;-150.27;100.00;61272.81;5034084;29;20048;-75
2023/04/17 08:54:18;;;;;;;31.87;27.30;;;;;;;-150.27;100.00;61272.81;5032944;29;20038;-75
2023/04/17 08:56:49;;;;;;;36.97;27.00;;;;;;;-150.27;100.00;61272.81;5031725;29;20029;-77
2023/04/17 08:59:22;;;;;;;30.87;25.93;;;;;;;-150.27;100.00;61272.81;5032491;29;20402;-78
2023/04/17 09:02:04;;;;;;;32.10;25.27;;;;;;;-150.27;100.00;61272.81;5033709;29;20053;-76
2023/04/17 09:04:40;;;;;;;31.33;25.47;;;;;;;-150.27;100.00;61272.81;5033091;29;20061;-76
2023/04/17 09:07:14;;;;;;;31.57;26.30;;;;;;;-150.27;100.00;61272.81;5032072;29;20121;-75
2023/04/17 09:09:49;;;;;;;31.08;26.50;;;;;;;-150.27;100.00;61272.81;5032848;29;20105;-76
2023/04/17 09:12:23;;;;;;;31.00;25.57;;;;;;;-150.27;100.00;61272.81;5034045;29;20061;-76
2023/04/17 09:14:54;;;;;;;35.77;26.37;;;;;;;-150.27;100.00;61272.81;5046638;29;21014;-76
2023/04/17 09:17:33;;;;;;;32.17;25.90;;;;;;;-150.27;100.00;61272.81;5052307;29;20029;-76
2023/04/17 09:20:07;;;;;;;32.50;26.63;;;;;;;-150.27;100.00;61272.81;5053001;29;20038;-76
2023/04/17 09:22:39;;;;;;;34.63;27.30;;;;;;;-150.27;100.00;61272.81;5052622;29;20328;-76
2023/04/17 09:25:16;;;;;;;33.60;27.13;;;;;;;-150.27;100.00;61272.81;5044999;29;20054;-76
2023/04/17 09:27:47;;;;;;;33.40;25.27;;;;;;;-150.27;100.00;61272.81;5039254;29;20041;-77
2023/04/17 09:30:19;;;;;;;30.00;25.23;;;;;;;-150.27;100.00;61272.81;5040271;29;20116;-77
2023/04/17 09:33:02;;;;;;;33.43;27.03;;;;;;;-150.27;100.00;61272.81;5035019;29;20664;-76
2023/04/17 09:35:37;;;;;;;29.83;26.63;;;;;;;-150.27;100.00;61272.81;5052694;29;20112;-77
2023/04/17 09:38:08;;;;;;;32.17;25.53;;;;;;;-150.27;100.00;61272.81;5035809;29;20033;-77
2023/04/17 09:40:41;;;;;;;30.97;24.77;;;;;;;-150.27;100.00;61272.81;5052593;29;20041;-75
2023/04/17 09:43:12;;;;;;;34.10;25.27;;;;;;;-150.27;100.00;61272.81;5050003;29;20033;-75
2023/04/17 09:45:44;;;;;;;32.43;26.73;;;;;;;-150.27;100.00;61272.81;5044176;29;20082;-75
2023/04/17 09:48:16;;;;;;;30.17;25.97;;;;;;;-150.27;100.00;61272.81;5054673;29;20128;-75
2023/04/17 09:50:48;;;;;;;33.20;26.27;;;;;;;-150.27;100.00;61272.81;5051348;29;20445;-76
2023/04/17 09:53:19;;;;;;;35.50;22.80;;;;;;;-150.27;100.00;61272.81;5052963;29;20026;-76
2023/04/17 09:55:52;;;;;;;32.67;25.60;;;;;;;-150.27;100.00;61272.81;5054068;29;20082;-76
2023/04/17 09:58:23;;;;;;;27.57;24.50;;;;;;;-150.27;100.00;61272.81;5031128;29;20032;-76
2023/04/17 10:00:55;;;;;;;27.07;23.40;;;;;;;-150.27;100.00;61272.81;5053252;29;20029;-76
2023/04/17 10:03:26;;;;;;;30.50;24.40;;;;;;;-150.27;100.00;61272.81;5050300;29;20033;-76
2023/04/17 10:05:59;;;;;;;29.67;23.27;;;;;;;-150.27;100.00;61272.81;5053636;29;20022;-76
2023/04/17 10:08:31;;;;;;;26.17;22.63;;;;;;;-150.27;100.00;61272.81;5037652;29;20052;-76
2023/04/17 10:11:05;;;;;;;26.93;24.03;;;;;;;-150.27;100.00;61272.81;5047950;29;20487;-76
2023/04/17 10:13:39;;;;;;;28.40;22.48;;;;;;;-150.27;100.00;61272.81;5036101;29;20057;-76
2023/04/17 10:16:10;;;;;;;26.58;23.48;;;;;;;-150.27;100.00;61272.81;5047284;29;20056;-75
2023/04/17 10:18:42;;;;;;;26.93;23.93;;;;;;;-150.27;100.00;61272.81;5049375;29;20033;-76
2023/04/17 10:21:23;;;;;;;26.33;21.00;;;;;;;-150.27;100.00;61272.81;5052341;29;20497;-76
2023/04/17 10:23:54;;;;;;;25.87;20.87;;;;;;;-150.27;100.00;61272.81;5019149;29;20030;-75
2023/04/17 10:26:28;;;;;;;28.17;21.93;;;;;;;-150.27;100.00;61272.81;5036100;29;20025;-76
2023/04/17 10:29:00;;;;;;;26.80;23.60;;;;;;;-150.27;100.00;61272.81;5019384;29;20044;-76
2023/04/17 10:32:09;;;;;;;27.27;22.77;;;;;;;-150.27;100.00;61272.81;5035985;29;20406;-76
2023/04/17 10:34:41;;;;;;;26.10;22.70;;;;;;;-150.27;100.00;61272.81;5046332;29;20565;-76
2023/04/17 10:37:15;;;;;;;25.43;22.50;;;;;;;-150.27;100.00;61272.81;5054394;29;20041;-76
2023/04/17 10:39:58;;;;;;;26.27;22.07;;;;;;;-150.27;100.00;61272.81;5048383;29;20038;-76
2023/04/17 10:42:31;;;;;;;25.03;20.87;;;;;;;-150.27;100.00;61272.81;5046949;29;20555;-77
2023/04/17 10:45:16;;;;;;;22.63;20.10;;;;;;;-150.27;100.00;61272.81;5036290;29;20033;-76
2023/04/17 10:47:57;;;;;;;25.10;20.40;;;;;;;-150.27;100.00;61272.81;5043508;29;20120;-77
2023/04/17 10:50:28;;;;;;;25.37;19.40;;;;;;;-150.27;100.00;61272.81;5047564;29;20030;-76
2023/04/17 10:53:00;;;;;;;27.33;20.30;;;;;;;-150.27;100.00;61272.81;5049872;29;20104;-76
2023/04/17 10:55:31;;;;;;;24.53;19.70;;;;;;;-150.27;100.00;61272.81;5054013;29;20116;-76
2023/04/17 10:58:11;;;;;;;24.17;18.93;;;;;;;-150.27;100.00;61272.81;5035599;29;20519;-75
2023/04/17 11:00:50;;;;;;;22.07;19.77;;;;;;;-150.27;100.00;61272.81;5045054;29;20033;-76
2023/04/17 11:03:22;;;;;;;23.80;20.63;;;;;;;-150.27;100.00;61272.81;5053960;29;20117;-76
2023/04/17 11:05:54;;;;;;;22.87;20.27;;;;;;;-150.27;100.00;61272.81;5037175;29;20050;-76
2023/04/17 11:08:26;;;;;;;26.57;23.40;;;;;;;-150.27;100.00;61272.81;5046341;29;20546;-76
2023/04/17 11:10:57;;;;;;;25.00;21.57;;;;;;;-150.27;100.00;61272.81;5033055;29;20029;-76
2023/04/17 11:13:32;;;;;;;25.50;21.17;;;;;;;-150.27;100.00;61272.81;5055389;29;20802;-76
2023/04/17 11:16:04;;;;;;;23.70;20.37;;;;;;;-150.27;100.00;61272.81;5031108;29;20034;-76
2023/04/17 11:18:37;;;;;;;22.97;20.07;;;;;;;-150.27;100.00;61272.81;5012327;29;20038;-74
2023/04/17 11:21:13;;;;;;;26.13;20.67;;;;;;;-150.27;100.00;61272.81;5016585;29;20061;-75